Terminal Aerodrome Forecast
Issued by NWS

Home | Current Version | Previous Version | Text Only | Print | Product List | Glossary On
Versions: 1 2 3 4 5 6 7 8 9 10 11 12 13
330
FTUS42 TJSJ 241120
TAFJPS
TAF
TJPS 241120Z 2412/2512 07007KT P6SM VCSH FEW020 BKN250
     FM241350 14015G21KT P6SM SCT030 SCT050
     FM242330 09009KT P6SM FEW030 FEW060=

USA.gov is the U.S. government's official web portal to all federal, state and local government web resources and services.